createdAt,value
2018-07-26T00:00:26.569Z,10.38
2018-07-26T00:02:56.015Z,8.30
2018-07-26T00:05:25.394Z,8.83
2018-07-26T00:07:54.704Z,8.85
2018-07-26T00:10:24.029Z,9.75
2018-07-26T00:12:53.685Z,9.20
2018-07-26T00:15:22.969Z,9.65
2018-07-26T00:17:52.179Z,9.28
2018-07-26T00:20:21.424Z,8.73
2018-07-26T00:22:50.958Z,8.25
2018-07-26T00:25:20.264Z,10.03
2018-07-26T00:27:49.741Z,9.78
2018-07-26T00:30:18.988Z,8.55
2018-07-26T00:32:47.871Z,10.20
2018-07-26T00:35:17.098Z,9.45
2018-07-26T00:37:46.388Z,8.95
2018-07-26T00:40:15.914Z,9.53
2018-07-26T00:42:45.140Z,10.10
2018-07-26T00:45:14.354Z,8.38
2018-07-26T00:47:43.581Z,10.30
2018-07-26T00:50:13.815Z,9.60
2018-07-26T00:52:43.274Z,9.85
2018-07-26T00:55:12.493Z,10.90
2018-07-26T00:57:41.737Z,9.75
2018-07-26T01:00:11.102Z,10.35
2018-07-26T01:02:40.560Z,9.95
2018-07-26T01:05:09.824Z,9.38
2018-07-26T01:07:39.025Z,10.50
2018-07-26T01:10:09.578Z,9.55
2018-07-26T01:12:38.902Z,10.95
2018-07-26T01:15:09.139Z,11.53
2018-07-26T01:17:38.663Z,11.43
2018-07-26T01:20:08.931Z,10.40
2018-07-26T01:22:38.293Z,10.72
2018-07-26T01:25:07.848Z,10.28
2018-07-26T01:27:37.130Z,10.15
2018-07-26T01:30:07.967Z,10.95
2018-07-26T01:32:37.288Z,10.45
2018-07-26T01:35:07.048Z,10.78
2018-07-26T01:37:36.426Z,11.55
2018-07-26T01:40:05.963Z,11.65
2018-07-26T01:44:43.845Z,11.22
2018-07-26T01:47:14.529Z,12.80
2018-07-26T01:49:43.988Z,12.23
2018-07-26T01:52:13.795Z,10.65
2018-07-26T01:54:43.089Z,11.53
2018-07-26T01:57:13.285Z,12.33
2018-07-26T01:59:44.798Z,11.80
2018-07-26T02:02:13.665Z,11.43
2018-07-26T02:04:42.835Z,10.53
2018-07-26T02:07:12.390Z,12.50
2018-07-26T02:09:41.619Z,11.93
2018-07-26T02:12:10.931Z,12.20
2018-07-26T02:14:40.206Z,11.57
2018-07-26T02:17:10.180Z,12.25
2018-07-26T02:19:39.460Z,12.25
2018-07-26T02:22:08.731Z,12.03
2018-07-26T02:24:38.557Z,12.65
2018-07-26T02:27:07.858Z,12.73
2018-07-26T02:29:37.567Z,11.85
2018-07-26T02:32:07.507Z,12.55
2018-07-26T02:34:36.783Z,12.80
2018-07-26T02:37:06.048Z,11.97
2018-07-26T02:39:35.283Z,11.80
2018-07-26T02:42:04.643Z,12.82
2018-07-26T02:44:33.883Z,12.43
2018-07-26T02:47:03.157Z,12.43
2018-07-26T02:49:32.502Z,13.35
2018-07-26T02:52:01.757Z,12.60
2018-07-26T02:54:31.081Z,13.85
2018-07-26T02:57:00.616Z,12.63
2018-07-26T02:59:32.964Z,11.63
2018-07-26T03:02:02.461Z,13.30
2018-07-26T03:04:31.697Z,14.07
2018-07-26T03:07:01.518Z,11.55
2018-07-26T03:09:30.785Z,12.95
2018-07-26T03:12:00.035Z,12.23
2018-07-26T03:14:33.456Z,14.28
2018-07-26T03:17:02.737Z,12.95
2018-07-26T03:19:32.066Z,12.30
2018-07-26T03:22:01.293Z,13.80
2018-07-26T03:24:31.720Z,14.53
2018-07-26T03:27:00.966Z,14.50
2018-07-26T03:29:30.902Z,14.30
2018-07-26T03:32:00.916Z,13.78
2018-07-26T03:34:30.111Z,14.95
2018-07-26T03:36:59.320Z,14.40
2018-07-26T03:39:28.735Z,14.83
2018-07-26T03:41:58.782Z,15.03
2018-07-26T03:44:27.983Z,13.60
2018-07-26T03:46:57.554Z,15.03
2018-07-26T03:49:26.971Z,12.93
2018-07-26T03:51:56.496Z,14.63
2018-07-26T03:54:26.377Z,13.20
2018-07-26T03:56:56.480Z,13.53
2018-07-26T03:59:26.216Z,13.30
2018-07-26T04:01:56.038Z,13.55
2018-07-26T04:04:26.080Z,14.65
2018-07-26T04:06:58.284Z,13.90
2018-07-26T04:09:28.285Z,13.43
2018-07-26T04:11:57.684Z,14.15
2018-07-26T04:14:26.984Z,13.40
2018-07-26T04:16:57.423Z,14.55
2018-07-26T04:19:28.100Z,14.35
2018-07-26T04:21:57.678Z,16.20
2018-07-26T04:24:30.804Z,14.60
2018-07-26T04:27:01.985Z,14.47
2018-07-26T04:29:33.015Z,14.13
2018-07-26T04:32:03.239Z,13.30
2018-07-26T04:34:34.351Z,13.65
2018-07-26T04:37:03.602Z,13.80
2018-07-26T04:39:33.649Z,14.20
2018-07-26T04:42:03.284Z,12.78
2018-07-26T04:44:33.159Z,13.80
2018-07-26T04:47:02.869Z,13.40
2018-07-26T04:49:35.627Z,14.33
2018-07-26T04:52:04.867Z,14.13
2018-07-26T04:54:35.528Z,15.03
2018-07-26T04:57:04.887Z,13.72
2018-07-26T04:59:35.404Z,14.20
2018-07-26T05:02:04.901Z,13.75
2018-07-26T05:04:34.265Z,13.43
2018-07-26T05:07:03.725Z,12.63
2018-07-26T05:09:34.321Z,12.50
2018-07-26T05:12:03.849Z,11.18
2018-07-26T05:14:34.159Z,13.32
2018-07-26T05:17:04.257Z,13.45
2018-07-26T05:19:33.704Z,14.25
2018-07-26T05:22:03.935Z,14.55
2018-07-26T05:24:33.137Z,14.58
2018-07-26T05:27:03.456Z,15.25
2018-07-26T05:29:33.708Z,12.98
2018-07-26T05:32:03.120Z,10.78
2018-07-26T05:34:35.859Z,12.55
2018-07-26T05:37:05.311Z,12.93
2018-07-26T05:39:34.845Z,13.78
2018-07-26T05:42:04.286Z,13.20
2018-07-26T05:44:34.038Z,14.53
2018-07-26T05:47:04.098Z,13.03
2018-07-26T05:49:33.810Z,13.85
2018-07-26T05:52:03.049Z,13.08
2018-07-26T05:54:33.501Z,12.37
2018-07-26T05:57:02.908Z,14.40
2018-07-26T05:59:33.184Z,13.13
2018-07-26T06:02:02.476Z,12.00
2018-07-26T06:04:32.351Z,13.40
2018-07-26T06:07:01.591Z,13.40
2018-07-26T06:09:31.007Z,12.87
2018-07-26T06:12:02.546Z,13.67
2018-07-26T06:14:31.844Z,13.33
2018-07-26T06:17:01.110Z,13.10
2018-07-26T06:19:31.640Z,12.30
2018-07-26T06:22:01.646Z,14.27
2018-07-26T06:24:30.890Z,12.50
2018-07-26T06:27:00.319Z,13.07
2018-07-26T06:29:29.735Z,12.80
2018-07-26T06:31:59.924Z,13.10
2018-07-26T06:34:30.163Z,12.87
2018-07-26T06:36:59.843Z,11.60
2018-07-26T06:39:29.254Z,13.10
2018-07-26T06:41:58.474Z,13.53
2018-07-26T06:44:28.056Z,11.80
2018-07-26T06:47:00.134Z,12.40
2018-07-26T06:49:30.624Z,13.07
2018-07-26T06:51:59.992Z,12.43
2018-07-26T06:54:29.340Z,12.70
2018-07-26T06:56:58.627Z,12.27
2018-07-26T06:59:28.186Z,11.60
2018-07-26T07:01:57.445Z,13.00
2018-07-26T07:04:26.716Z,11.73
2018-07-26T07:06:55.940Z,10.73
2018-07-26T07:09:25.290Z,9.40
2018-07-26T07:11:55.285Z,10.70
2018-07-26T07:14:24.537Z,10.23
2018-07-26T07:16:53.726Z,10.03
2018-07-26T07:19:23.069Z,8.57
2018-07-26T07:21:52.296Z,9.53
2018-07-26T07:24:22.506Z,8.33
2018-07-26T07:26:53.262Z,10.20
2018-07-26T07:29:23.327Z,9.60
2018-07-26T07:31:52.600Z,10.13
2018-07-26T07:34:22.178Z,11.37
2018-07-26T07:36:50.959Z,9.97
2018-07-26T07:39:20.510Z,9.10
2018-07-26T07:41:49.736Z,8.80
2018-07-26T07:44:18.853Z,9.63
2018-07-26T07:46:48.163Z,9.57
2018-07-26T07:49:17.548Z,8.90
2018-07-26T07:51:46.771Z,8.10
2018-07-26T07:54:15.986Z,8.63
2018-07-26T07:56:45.218Z,7.50
2018-07-26T07:59:14.534Z,7.27
2018-07-26T08:01:43.808Z,6.67
2018-07-26T08:04:13.072Z,8.03
2018-07-26T08:06:42.318Z,7.60
2018-07-26T08:09:12.300Z,8.53
2018-07-26T08:11:41.533Z,8.23
2018-07-26T08:14:11.502Z,7.80
2018-07-26T08:16:40.831Z,8.43
2018-07-26T08:19:12.088Z,8.17
2018-07-26T08:21:41.464Z,7.77
2018-07-26T08:24:11.410Z,7.90
2018-07-26T08:26:40.683Z,6.87
2018-07-26T08:29:10.093Z,7.27
2018-07-26T08:31:39.519Z,5.93
2018-07-26T08:34:09.935Z,7.10
2018-07-26T08:36:39.177Z,7.00
2018-07-26T08:39:11.023Z,6.93
2018-07-26T08:41:40.264Z,5.87
2018-07-26T08:44:09.549Z,5.30
2018-07-26T08:46:39.213Z,5.70
2018-07-26T08:49:08.876Z,5.57
2018-07-26T08:51:38.709Z,6.23
2018-07-26T08:54:08.268Z,5.00
2018-07-26T08:56:37.533Z,5.70
2018-07-26T08:59:06.799Z,4.83
2018-07-26T09:01:36.114Z,4.90
2018-07-26T09:04:06.151Z,4.77
2018-07-26T09:06:37.998Z,5.03
2018-07-26T09:09:10.848Z,4.23
2018-07-26T09:11:43.375Z,4.30
2018-07-26T09:14:12.948Z,3.93
2018-07-26T09:16:43.158Z,5.23
2018-07-26T09:19:13.168Z,3.80
2018-07-26T09:21:42.428Z,3.40
2018-07-26T09:24:12.063Z,4.00
2018-07-26T09:26:43.522Z,4.17
2018-07-26T09:29:13.771Z,4.00
2018-07-26T09:31:43.089Z,3.60
2018-07-26T09:34:12.509Z,3.77
2018-07-26T09:36:43.272Z,3.67
2018-07-26T09:39:15.031Z,2.93
2018-07-26T09:41:44.707Z,3.27
2018-07-26T09:44:14.110Z,3.10
2018-07-26T09:46:43.741Z,3.97
2018-07-26T09:49:13.187Z,3.30
2018-07-26T09:51:44.410Z,3.30
2018-07-26T09:54:13.262Z,3.33
2018-07-26T09:56:42.668Z,3.03
2018-07-26T09:59:12.582Z,3.00
2018-07-26T10:01:41.780Z,3.30
2018-07-26T10:04:11.028Z,3.00
2018-07-26T10:06:40.233Z,2.90
2018-07-26T10:09:11.407Z,2.53
2018-07-26T10:11:40.789Z,3.13
2018-07-26T10:14:10.110Z,3.90
2018-07-26T10:16:39.463Z,3.47
2018-07-26T10:19:10.228Z,2.37
2018-07-26T10:21:39.765Z,3.00
2018-07-26T10:24:09.055Z,2.57
2018-07-26T10:26:39.282Z,3.17
2018-07-26T10:29:08.656Z,3.10
2018-07-26T10:31:37.983Z,3.30
2018-07-26T10:34:07.500Z,2.90
2018-07-26T10:36:36.804Z,3.20
2018-07-26T10:39:08.365Z,2.00
2018-07-26T10:41:37.762Z,2.40
2018-07-26T10:44:07.063Z,2.57
2018-07-26T10:46:36.345Z,2.80
2018-07-26T10:49:09.476Z,2.67
2018-07-26T10:51:40.150Z,2.83
2018-07-26T10:54:09.444Z,2.53
2018-07-26T10:56:38.777Z,2.73
2018-07-26T10:59:08.100Z,3.30
2018-07-26T11:01:37.482Z,3.30
2018-07-26T11:04:06.741Z,2.90
2018-07-26T11:06:36.016Z,3.10
2018-07-26T11:09:08.516Z,2.50
2018-07-26T11:11:37.835Z,2.53
2018-07-26T11:14:07.716Z,2.80
2018-07-26T11:16:37.059Z,3.20
2018-07-26T11:19:06.381Z,3.70
2018-07-26T11:21:35.624Z,3.30
2018-07-26T11:24:05.175Z,3.00
2018-07-26T11:26:34.552Z,2.90
2018-07-26T11:29:04.150Z,3.60
2018-07-26T11:31:33.464Z,3.17
2018-07-26T11:34:02.928Z,2.63
2018-07-26T11:36:32.288Z,2.10
2018-07-26T11:39:02.076Z,2.00
2018-07-26T11:41:31.348Z,2.30
2018-07-26T11:44:00.696Z,2.40
2018-07-26T11:46:29.879Z,2.20
2018-07-26T11:48:59.401Z,2.17
2018-07-26T11:51:29.178Z,2.00
2018-07-26T11:53:59.207Z,1.93
2018-07-26T11:56:29.681Z,2.40
2018-07-26T11:58:59.130Z,1.93
2018-07-26T12:01:29.364Z,2.07
2018-07-26T12:03:58.564Z,2.07
2018-07-26T12:06:27.806Z,2.03
2018-07-26T12:08:58.164Z,1.83
2018-07-26T12:11:27.429Z,2.47
2018-07-26T12:13:57.237Z,1.70
2018-07-26T12:16:27.381Z,1.97
2018-07-26T12:18:56.793Z,3.00
2018-07-26T12:21:28.388Z,1.97
2018-07-26T12:24:10.997Z,2.37
2018-07-26T12:26:40.196Z,1.73
2018-07-26T12:29:10.336Z,1.80
2018-07-26T12:31:39.716Z,1.80
2018-07-26T12:34:08.917Z,1.77
2018-07-26T12:36:38.172Z,1.97
2018-07-26T12:39:10.092Z,2.27
2018-07-26T12:41:39.529Z,2.13
2018-07-26T12:44:09.074Z,2.10
2018-07-26T12:46:38.588Z,2.30
2018-07-26T12:49:07.988Z,2.23
2018-07-26T12:51:38.462Z,2.20
2018-07-26T12:54:07.667Z,1.90
2018-07-26T12:56:36.881Z,2.03
2018-07-26T12:59:07.229Z,2.57
2018-07-26T13:01:36.696Z,2.77
2018-07-26T13:04:05.929Z,1.93
2018-07-26T13:06:35.169Z,1.87
2018-07-26T13:09:06.340Z,3.50
2018-07-26T13:11:35.624Z,2.70
2018-07-26T13:14:06.063Z,2.50
2018-07-26T13:16:36.086Z,1.73
2018-07-26T13:19:06.478Z,2.20
2018-07-26T13:21:35.678Z,2.77
2018-07-26T13:24:04.918Z,2.10
2018-07-26T13:26:35.114Z,2.53
2018-07-26T13:29:04.342Z,2.40
2018-07-26T13:31:33.588Z,2.10
2018-07-26T13:34:03.459Z,2.17
2018-07-26T13:36:32.679Z,2.37
2018-07-26T13:39:02.970Z,2.17
2018-07-26T13:41:33.141Z,3.10
2018-07-26T13:44:02.357Z,2.00
2018-07-26T13:46:31.538Z,2.20
2018-07-26T13:49:01.403Z,1.80
2018-07-26T13:51:30.757Z,1.70
2018-07-26T13:54:00.295Z,1.83
2018-07-26T13:56:30.295Z,2.20
2018-07-26T13:58:59.703Z,1.90
2018-07-26T14:01:29.665Z,2.30
2018-07-26T14:03:59.278Z,2.60
2018-07-26T14:06:28.474Z,2.10
2018-07-26T14:08:57.810Z,2.43
2018-07-26T14:11:27.044Z,2.27
2018-07-26T14:13:56.224Z,2.10
2018-07-26T14:16:25.473Z,2.37
2018-07-26T14:18:54.770Z,2.33
2018-07-26T14:21:24.004Z,2.77
2018-07-26T14:24:01.782Z,2.40
2018-07-26T14:26:31.805Z,2.70
2018-07-26T14:29:01.063Z,1.93
2018-07-26T14:31:30.260Z,2.27
2018-07-26T14:33:59.574Z,2.43
2018-07-26T14:36:28.811Z,2.90
2018-07-26T14:38:59.051Z,2.90
2018-07-26T14:41:28.332Z,2.20
2018-07-26T14:43:58.565Z,2.10
2018-07-26T14:46:27.777Z,2.40
2018-07-26T14:48:57.158Z,2.33
2018-07-26T14:51:26.422Z,2.50
2018-07-26T14:53:55.957Z,3.00
2018-07-26T14:56:25.201Z,2.70
2018-07-26T14:58:54.547Z,2.60
2018-07-26T15:01:23.873Z,2.33
2018-07-26T15:03:53.374Z,2.40
2018-07-26T15:06:24.611Z,3.07
2018-07-26T15:08:54.177Z,2.90
2018-07-26T15:11:26.040Z,2.90
2018-07-26T15:13:56.381Z,3.40
2018-07-26T15:16:28.622Z,2.60
2018-07-26T15:19:04.437Z,2.87
2018-07-26T15:21:48.288Z,3.40
2018-07-26T15:24:21.040Z,3.73
2018-07-26T15:26:53.508Z,3.00
2018-07-26T15:29:25.660Z,3.90
2018-07-26T15:31:56.390Z,2.60
2018-07-26T15:34:26.016Z,3.10
2018-07-26T15:36:56.782Z,3.07
2018-07-26T15:39:29.011Z,2.60
2018-07-26T15:41:59.121Z,2.70
2018-07-26T15:44:28.373Z,2.90
2018-07-26T15:46:57.645Z,2.50
2018-07-26T15:49:27.224Z,3.23
2018-07-26T15:51:57.981Z,3.00
2018-07-26T15:54:28.421Z,2.80
2018-07-26T15:56:58.196Z,3.20
2018-07-26T15:59:27.653Z,3.00
2018-07-26T16:01:56.985Z,3.13
2018-07-26T16:04:26.961Z,3.10
2018-07-26T16:07:01.089Z,3.27
2018-07-26T16:09:30.505Z,3.30
2018-07-26T16:11:59.788Z,3.30
2018-07-26T16:14:29.294Z,3.07
2018-07-26T16:16:58.568Z,3.90
2018-07-26T16:19:28.854Z,3.27
2018-07-26T16:21:58.131Z,2.70
2018-07-26T16:24:27.356Z,3.33
2018-07-26T16:26:56.562Z,3.80
2018-07-26T16:29:25.799Z,3.60
2018-07-26T16:31:55.182Z,2.80
2018-07-26T16:34:24.673Z,3.10
2018-07-26T16:36:54.324Z,3.03
2018-07-26T16:39:23.510Z,3.40
2018-07-26T16:41:52.902Z,2.97
2018-07-26T16:44:24.860Z,4.00
2018-07-26T16:46:54.061Z,3.63
2018-07-26T16:49:26.830Z,3.20
2018-07-26T16:51:56.188Z,3.20
2018-07-26T16:54:27.108Z,3.00
2018-07-26T16:56:56.366Z,3.00
2018-07-26T16:59:25.723Z,3.03
2018-07-26T17:01:54.979Z,2.90
2018-07-26T17:04:24.199Z,3.33
2018-07-26T17:06:53.458Z,2.90
2018-07-26T17:09:23.057Z,2.80
2018-07-26T17:11:55.266Z,3.87
2018-07-26T17:14:24.790Z,3.20
2018-07-26T17:16:53.988Z,3.77
2018-07-26T17:19:23.790Z,3.03
2018-07-26T17:21:52.983Z,3.23
2018-07-26T17:24:23.156Z,3.20
2018-07-26T17:26:52.384Z,2.83
2018-07-26T17:29:22.594Z,4.87
2018-07-26T17:31:51.947Z,3.33
2018-07-26T17:34:21.123Z,3.33
2018-07-26T17:36:50.863Z,3.33
2018-07-26T17:39:20.188Z,3.30
2018-07-26T17:41:49.455Z,3.10
2018-07-26T17:44:19.652Z,3.40
2018-07-26T17:46:48.882Z,3.57
2018-07-26T17:49:18.617Z,3.60
2018-07-26T17:51:48.095Z,3.43
2018-07-26T17:54:16.980Z,3.43
2018-07-26T17:56:46.169Z,3.37
2018-07-26T17:59:15.943Z,2.93
2018-07-26T18:01:45.321Z,3.03
2018-07-26T18:04:14.798Z,2.93
2018-07-26T18:06:44.032Z,3.50
2018-07-26T18:09:13.400Z,3.30
2018-07-26T18:11:42.732Z,3.13
2018-07-26T18:14:12.542Z,2.97
2018-07-26T18:16:41.810Z,2.90
2018-07-26T18:19:12.186Z,3.43
2018-07-26T18:21:41.522Z,3.30
2018-07-26T18:24:10.843Z,3.50
2018-07-26T18:26:40.125Z,3.33
2018-07-26T18:29:09.376Z,3.17
2018-07-26T18:31:39.533Z,3.70
2018-07-26T18:34:09.130Z,3.40
2018-07-26T18:36:38.383Z,6.27
2018-07-26T18:39:11.217Z,3.27
2018-07-26T18:41:40.611Z,2.90
2018-07-26T18:44:10.421Z,3.77
2018-07-26T18:46:40.957Z,3.50
2018-07-26T18:49:11.410Z,3.20
2018-07-26T18:51:41.079Z,3.80
2018-07-26T18:54:10.367Z,3.40
2018-07-26T18:56:39.720Z,3.47
2018-07-26T18:59:09.395Z,3.03
2018-07-26T19:01:38.671Z,3.77
2018-07-26T19:04:08.131Z,3.27
2018-07-26T19:06:37.420Z,4.00
2018-07-26T19:09:09.882Z,4.43
2018-07-26T19:11:39.202Z,4.03
2018-07-26T19:14:08.450Z,4.10
2018-07-26T19:16:38.296Z,2.80
2018-07-26T19:19:07.723Z,3.97
2018-07-26T19:21:37.169Z,3.60
2018-07-26T19:24:07.652Z,4.40
2018-07-26T19:26:36.934Z,3.60
2018-07-26T19:29:06.969Z,4.33
2018-07-26T19:31:36.292Z,3.50
2018-07-26T19:34:06.021Z,3.57
2018-07-26T19:37:13.179Z,4.50
2018-07-26T19:39:54.900Z,3.73
2018-07-26T19:42:51.877Z,3.90
2018-07-26T19:45:32.683Z,3.53
2018-07-26T19:54:25.343Z,3.73
2018-07-26T19:57:06.415Z,3.70
2018-07-26T20:00:11.506Z,3.10
2018-07-26T20:03:27.733Z,3.40
2018-07-26T20:05:57.654Z,3.07
2018-07-26T20:08:27.026Z,3.30
2018-07-26T20:10:56.236Z,4.07
2018-07-26T20:13:26.455Z,3.33
2018-07-26T20:15:55.713Z,3.27
2018-07-26T20:18:32.332Z,3.87
2018-07-26T20:21:01.626Z,3.30
2018-07-26T20:23:30.983Z,3.23
2018-07-26T20:26:00.251Z,3.63
2018-07-26T20:28:31.123Z,3.70
2018-07-26T20:31:00.465Z,4.33
2018-07-26T20:33:30.611Z,3.67
2018-07-26T20:36:01.241Z,3.87
2018-07-26T20:38:31.017Z,3.93
2018-07-26T20:41:00.799Z,4.00
2018-07-26T20:43:30.537Z,3.80
2018-07-26T20:46:00.039Z,3.30
2018-07-26T20:48:30.671Z,3.50
2018-07-26T20:51:00.833Z,4.67
2018-07-26T20:53:30.085Z,3.73
2018-07-26T20:55:59.657Z,4.23
2018-07-26T20:58:32.384Z,3.03
2018-07-26T21:01:04.694Z,4.70
2018-07-26T21:03:34.001Z,4.90
2018-07-26T21:06:03.370Z,3.80
2018-07-26T21:08:32.776Z,4.03
2018-07-26T21:11:02.040Z,3.60
2018-07-26T21:13:31.335Z,3.80
2018-07-26T21:16:16.925Z,3.33
2018-07-26T21:18:46.342Z,3.50
2018-07-26T21:21:15.814Z,4.00
2018-07-26T21:23:45.041Z,3.50
2018-07-26T21:26:14.348Z,3.50
2018-07-26T21:28:43.745Z,3.43
2018-07-26T21:31:12.943Z,4.33
2018-07-26T21:33:42.166Z,3.30
2018-07-26T21:36:11.374Z,3.20
2018-07-26T21:38:40.697Z,3.57
2018-07-26T21:41:09.918Z,4.60
2018-07-26T21:43:39.139Z,5.40
2018-07-26T21:46:08.648Z,4.20
2018-07-26T21:48:43.075Z,3.70
2018-07-26T21:51:12.321Z,4.00
2018-07-26T21:53:42.759Z,4.70
2018-07-26T21:56:11.962Z,4.20
2018-07-26T21:58:41.561Z,4.35
2018-07-26T22:01:10.774Z,5.08
2018-07-26T22:03:40.695Z,4.08
2018-07-26T22:06:09.944Z,4.72
2018-07-26T22:08:40.020Z,5.00
2018-07-26T22:11:09.851Z,4.42
2018-07-26T22:13:39.059Z,4.22
2018-07-26T22:16:09.551Z,4.00
2018-07-26T22:18:39.808Z,4.45
2018-07-26T22:21:09.028Z,4.87
2018-07-26T22:23:38.276Z,4.73
2018-07-26T22:26:07.735Z,4.37
2018-07-26T22:28:37.189Z,4.45
2018-07-26T22:31:06.484Z,4.40
2018-07-26T22:33:35.732Z,4.78
2018-07-26T22:36:04.971Z,4.25
2018-07-26T22:38:34.515Z,4.83
2018-07-26T22:41:03.770Z,4.00
2018-07-26T22:43:33.047Z,3.85
2018-07-26T22:46:02.276Z,4.35
2018-07-26T22:48:32.154Z,4.00
2018-07-26T22:51:01.455Z,4.00
2018-07-26T22:53:30.852Z,5.35
2018-07-26T22:56:00.066Z,4.87
2018-07-26T22:58:29.668Z,4.83
2018-07-26T23:00:59.364Z,4.37
2018-07-26T23:03:28.952Z,5.33
2018-07-26T23:05:58.162Z,4.65
2018-07-26T23:08:27.425Z,4.78
2018-07-26T23:10:56.846Z,5.03
2018-07-26T23:13:26.115Z,5.62
2018-07-26T23:15:56.839Z,5.22
2018-07-26T23:18:26.332Z,4.42
2018-07-26T23:20:55.656Z,4.97
2018-07-26T23:23:24.826Z,4.75
2018-07-26T23:25:54.061Z,5.05
2018-07-26T23:28:23.635Z,5.40
2018-07-26T23:30:52.893Z,4.92
2018-07-26T23:33:22.345Z,4.90
2018-07-26T23:35:51.562Z,4.80
2018-07-26T23:38:27.364Z,4.83
2018-07-26T23:40:58.721Z,5.42
2018-07-26T23:43:29.998Z,5.10
2018-07-26T23:45:59.208Z,5.15
2018-07-26T23:48:30.522Z,4.50
2018-07-26T23:50:59.402Z,5.25
2018-07-26T23:53:29.060Z,5.40
2018-07-26T23:55:58.566Z,4.17
2018-07-26T23:58:28.107Z,5.55
